Aérodrome :
LOGIN :

S'inscrire | Disclaimer

   EN    FR    IT 

 










Légende :    VFR   VFR Marginal   IFR   IFR Intensif   IFR Très Intensif
Visi : 
Plafond : 
>= 8 km
>= 3000ft
5 à 8 km
1000 à 3000 ft
1500m à 5 km
500 à 1000 ft
800 à 1500m
200 à 500 ft
< 800m
< 200 ft
Symboles :   Orages  Brouillard  Fortes neiges  Fortes précipitations  Vent > 20 kt
SIGMETs :   Divers  Orages  Givrage  Turbulence  Onde Orograph.  Cendres Volcan.







- Altitude de l'aérodrome : 84 ft
- Voir les cartes d'approche


LFBC - Cazaux

DERNIER METAR :
  • 301230Z AUTO 23008KT 210V270 9999 NSC 25/10 Q1019 NOSIG

METARs EXPIRÉS :
  • 301200Z AUTO 22007KT 190V250 9999 NSC 25/09 Q1019 NOSIG
  • 301130Z AUTO 23007KT 200V270 9999 NSC 24/09 Q1020 NOSIG
  • 301100Z AUTO 23005KT 190V270 9999 NSC 24/10 Q1020 NOSIG
  • 301030Z AUTO 18007KT 150V210 9999 NSC 23/10 Q1020 NOSIG
  • 301000Z AUTO 15004KT 110V190 9999 NSC 22/10 Q1021 NOSIG

TAF TAF LFBC
Valide du 30 à 09h jusqu'au 31 à 09h UTC


300800Z 3009/3109 15004KT CAVOK
BECMG 3102/3104 30010KT
BECMG 3106/3108 5000 RA BKN005 BKN045
Pas de NOTAMs connus pour ce terrain.



MET'MAP, la Météo Aéronautique d'un coup d'oeil ! - Copyright ORBIFLY Décembre 2007 - Disclaimer

ORBIFLY MET'MAP TEAM :

Programmation & Développement : Alexandra Zaïnal
Conception & Développement : Baudouin d'Aumeries
Co-Programmation & Développement : Marc-Olivier Méhu
Soutien technique & logistique : Manuel Goepfert

Contact : metmap@orbifly.com




SOURCES & CREDITS :

   NOAA